WXM80 ListenWXM80 Stop

You find our weather info also at:

UK Metoffice

WeatherCloud

Weather Underground

Northeastern Weather Network

AWEKAS

Citizen Weather Observer Program (CWOP)

HAMweather, WeatherForYou, PWS Weather


Weather Underground History page Text

Daily Summary for November 15, 2017 Units:  Both    English   Metric
« Previous Day
Next Day »
Daily Weekly Monthly Yearly Custom
  High: Low: Average:
Temperature: 48.7 °F /  9.3 °C 39.6 °F /  4.2 °C 44.3 °F /  6.8 °C
Dew Point: 40.4 °F /  4.7 °C 35.1 °F /  1.7 °C 37.9 °F /  3.3 °C
Humidity: 86 % 69 % 78 %
Wind Speed: 7.8 mph /  12.6 km/h - 2.5 mph /  4 km/h
Wind Gust: 11.5 mph /  18.5 km/h - -
Wind:- - East
Pressure: 30.31 in /  1026.3 hPa 30.05 in /  1017.5 hPa -
Precipitation: 0.00 in /  0 mm    
Historical Graphs
 
 
Tabular Data for November 15, 2017
Time Temperature Dew Point Pressure Wind Wind Speed Wind Gust Humidity Rainfall Rate (Hourly)
00:03 41.9 °F /  5.5 °C 36.8 °F /  2.7 °C 30.29 in /  1025.6 hPa ENE 4.9 mph /  7.9 km/h 8.1 mph /  13 km/h 82 % 0.00 in /  0 mm
00:08 41.9 °F /  5.5 °C 36.8 °F /  2.7 °C 30.29 in /  1025.6 hPa NE 4.3 mph /  6.9 km/h 10.0 mph /  16.1 km/h 82 % 0.00 in /  0 mm
00:13 41.9 °F /  5.5 °C 36.8 °F /  2.7 °C 30.29 in /  1025.6 hPa ENE 4.7 mph /  7.6 km/h 8.1 mph /  13 km/h 82 % 0.00 in /  0 mm
00:18 42.0 °F /  5.6 °C 36.9 °F /  2.7 °C 30.29 in /  1025.6 hPa ENE 3.7 mph /  6 km/h 5.0 mph /  8 km/h 82 % 0.00 in /  0 mm
00:23 42.0 °F /  5.6 °C 36.9 °F /  2.7 °C 30.29 in /  1025.6 hPa ENE 4.6 mph /  7.4 km/h 6.9 mph /  11.1 km/h 82 % 0.00 in /  0 mm
00:28 42.0 °F /  5.6 °C 36.9 °F /  2.7 °C 30.29 in /  1025.6 hPa NE 7.3 mph /  11.7 km/h 9.0 mph /  14.5 km/h 82 % 0.00 in /  0 mm
00:33 42.1 °F /  5.6 °C 37.0 °F /  2.8 °C 30.29 in /  1025.6 hPa ENE 4.4 mph /  7.1 km/h 6.9 mph /  11.1 km/h 82 % 0.00 in /  0 mm
00:39 42.2 °F /  5.7 °C 37.1 °F /  2.8 °C 30.29 in /  1025.6 hPa ENE 3.7 mph /  6 km/h 8.1 mph /  13 km/h 82 % 0.00 in /  0 mm
00:44 42.2 °F /  5.7 °C 37.1 °F /  2.8 °C 30.29 in /  1025.6 hPa ENE 6.0 mph /  9.7 km/h 8.1 mph /  13 km/h 82 % 0.00 in /  0 mm
00:49 42.3 °F /  5.7 °C 37.2 °F /  2.9 °C 30.29 in /  1025.6 hPa ENE 4.3 mph /  6.9 km/h 8.1 mph /  13 km/h 82 % 0.00 in /  0 mm
00:54 42.3 °F /  5.7 °C 37.2 °F /  2.9 °C 30.29 in /  1025.6 hPa ENE 5.5 mph /  8.9 km/h 8.1 mph /  13 km/h 82 % 0.00 in /  0 mm
00:59 42.4 °F /  5.8 °C 37.3 °F /  2.9 °C 30.29 in /  1025.6 hPa ENE 5.0 mph /  8 km/h 8.1 mph /  13 km/h 82 % 0.00 in /  0 mm
01:04 42.5 °F /  5.8 °C 37.4 °F /  3 °C 30.29 in /  1025.6 hPa ENE 4.0 mph /  6.4 km/h 8.1 mph /  13 km/h 82 % 0.00 in /  0 mm
01:09 42.5 °F /  5.8 °C 37.4 °F /  3 °C 30.29 in /  1025.6 hPa NE 2.6 mph /  4.2 km/h 7.0 mph /  11.3 km/h 82 % 0.00 in /  0 mm
01:14 42.5 °F /  5.8 °C 37.4 °F /  3 °C 30.29 in /  1025.6 hPa ENE 4.3 mph /  6.9 km/h 8.1 mph /  13 km/h 82 % 0.00 in /  0 mm
01:19 42.5 °F /  5.8 °C 37.1 °F /  2.8 °C 30.29 in /  1025.6 hPa NE 2.5 mph /  4 km/h 4.6 mph /  7.4 km/h 81 % 0.00 in /  0 mm
01:24 42.5 °F /  5.8 °C 37.4 °F /  3 °C 30.29 in /  1025.6 hPa ENE 3.3 mph /  5.3 km/h 4.6 mph /  7.4 km/h 82 % 0.00 in /  0 mm
01:29 42.6 °F /  5.9 °C 37.5 °F /  3.1 °C 30.29 in /  1025.6 hPa NNE 2.3 mph /  3.7 km/h 6.9 mph /  11.1 km/h 82 % 0.00 in /  0 mm
01:34 42.5 °F /  5.8 °C 37.4 °F /  3 °C 30.29 in /  1025.6 hPa NE 0.6 mph /  1 km/h 4.6 mph /  7.4 km/h 82 % 0.00 in /  0 mm
01:39 42.5 °F /  5.8 °C 37.4 °F /  3 °C 30.29 in /  1025.6 hPa North 4.7 mph /  7.6 km/h 9.2 mph /  14.8 km/h 82 % 0.00 in /  0 mm
01:44 42.6 °F /  5.9 °C 37.8 °F /  3.2 °C 30.29 in /  1025.6 hPa NNE 3.7 mph /  6 km/h 6.9 mph /  11.1 km/h 83 % 0.00 in /  0 mm
01:49 42.5 °F /  5.8 °C 37.7 °F /  3.2 °C 30.30 in /  1026 hPa NNE 2.9 mph /  4.7 km/h 6.9 mph /  11.1 km/h 83 % 0.00 in /  0 mm
01:54 42.5 °F /  5.8 °C 37.7 °F /  3.2 °C 30.30 in /  1026 hPa NNE 2.8 mph /  4.5 km/h 6.9 mph /  11.1 km/h 83 % 0.00 in /  0 mm
01:59 42.4 °F /  5.8 °C 37.6 °F /  3.1 °C 30.29 in /  1025.6 hPa ENE 4.7 mph /  7.6 km/h 9.2 mph /  14.8 km/h 83 % 0.00 in /  0 mm
02:04 42.4 °F /  5.8 °C 37.6 °F /  3.1 °C 30.29 in /  1025.6 hPa NE 4.1 mph /  6.6 km/h 6.9 mph /  11.1 km/h 83 % 0.00 in /  0 mm
02:07 42.3 °F /  5.7 °C 37.5 °F /  3.1 °C 30.29 in /  1025.6 hPa NNE 2.3 mph /  3.7 km/h 4.6 mph /  7.4 km/h 83 % 0.00 in /  0 mm
02:12 42.2 °F /  5.7 °C 37.4 °F /  3 °C 30.29 in /  1025.6 hPa NNE 4.3 mph /  6.9 km/h 9.2 mph /  14.8 km/h 83 % 0.00 in /  0 mm
02:17 42.2 °F /  5.7 °C 37.4 °F /  3 °C 30.29 in /  1025.6 hPa North 4.8 mph /  7.7 km/h 7.0 mph /  11.3 km/h 83 % 0.00 in /  0 mm
02:22 42.1 °F /  5.6 °C 37.3 °F /  2.9 °C 30.29 in /  1025.6 hPa North 2.8 mph /  4.5 km/h 5.0 mph /  8 km/h 83 % 0.00 in /  0 mm
02:27 42.0 °F /  5.6 °C 37.2 °F /  2.9 °C 30.29 in /  1025.6 hPa NNE 4.0 mph /  6.4 km/h 6.0 mph /  9.7 km/h 83 % 0.00 in /  0 mm
02:29 42.0 °F /  5.6 °C 37.2 °F /  2.9 °C 30.29 in /  1025.6 hPa NNE 3.4 mph /  5.5 km/h 6.9 mph /  11.1 km/h 83 % 0.00 in /  0 mm
02:34 41.9 °F /  5.5 °C 37.1 °F /  2.8 °C 30.29 in /  1025.6 hPa NE 1.8 mph /  2.9 km/h 3.5 mph /  5.6 km/h 83 % 0.00 in /  0 mm
02:39 41.8 °F /  5.4 °C 36.7 °F /  2.6 °C 30.28 in /  1025.3 hPa ENE 3.8 mph /  6.1 km/h 6.9 mph /  11.1 km/h 82 % 0.00 in /  0 mm
02:44 41.7 °F /  5.4 °C 36.9 °F /  2.7 °C 30.29 in /  1025.6 hPa North 3.3 mph /  5.3 km/h 8.1 mph /  13 km/h 83 % 0.00 in /  0 mm
02:49 41.7 °F /  5.4 °C 36.9 °F /  2.7 °C 30.29 in /  1025.6 hPa ENE 3.7 mph /  6 km/h 3.7 mph /  6 km/h 83 % 0.00 in /  0 mm
02:54 41.6 °F /  5.3 °C 36.8 °F /  2.7 °C 30.29 in /  1025.6 hPa ENE 3.2 mph /  5.1 km/h 6.9 mph /  11.1 km/h 83 % 0.00 in /  0 mm
02:59 41.5 °F /  5.3 °C 36.7 °F /  2.6 °C 30.29 in /  1025.6 hPa NE 1.5 mph /  2.4 km/h 3.5 mph /  5.6 km/h 83 % 0.00 in /  0 mm
03:04 41.5 °F /  5.3 °C 36.7 °F /  2.6 °C 30.29 in /  1025.6 hPa ENE 3.9 mph /  6.3 km/h 8.1 mph /  13 km/h 83 % 0.00 in /  0 mm
03:09 41.4 °F /  5.2 °C 36.6 °F /  2.6 °C 30.29 in /  1025.6 hPa North 0.4 mph /  0.6 km/h 5.8 mph /  9.3 km/h 83 % 0.00 in /  0 mm
03:14 41.4 °F /  5.2 °C 36.6 °F /  2.6 °C 30.29 in /  1025.6 hPa NNE 5.9 mph /  9.5 km/h 8.1 mph /  13 km/h 83 % 0.00 in /  0 mm
03:19 41.3 °F /  5.2 °C 36.5 °F /  2.5 °C 30.29 in /  1025.6 hPa NE 1.0 mph /  1.6 km/h 2.3 mph /  3.7 km/h 83 % 0.00 in /  0 mm
03:24 41.3 °F /  5.2 °C 36.8 °F /  2.7 °C 30.29 in /  1025.6 hPa NNE 2.8 mph /  4.5 km/h 4.6 mph /  7.4 km/h 84 % 0.00 in /  0 mm
03:29 41.3 °F /  5.2 °C 36.8 °F /  2.7 °C 30.30 in /  1026 hPa NE 3.2 mph /  5.1 km/h 4.6 mph /  7.4 km/h 84 % 0.00 in /  0 mm
03:34 41.2 °F /  5.1 °C 36.7 °F /  2.6 °C 30.30 in /  1026 hPa ENE 2.3 mph /  3.7 km/h 4.6 mph /  7.4 km/h 84 % 0.00 in /  0 mm
03:39 41.2 °F /  5.1 °C 36.4 °F /  2.4 °C 30.29 in /  1025.6 hPa ENE 2.0 mph /  3.2 km/h 3.5 mph /  5.6 km/h 83 % 0.00 in /  0 mm
03:44 41.1 °F /  5.1 °C 36.3 °F /  2.4 °C 30.30 in /  1026 hPa North 2.3 mph /  3.7 km/h 4.6 mph /  7.4 km/h 83 % 0.00 in /  0 mm
03:49 41.1 °F /  5.1 °C 36.3 °F /  2.4 °C 30.29 in /  1025.6 hPa ENE 2.0 mph /  3.2 km/h 3.5 mph /  5.6 km/h 83 % 0.00 in /  0 mm
03:54 41.1 °F /  5.1 °C 36.3 °F /  2.4 °C 30.29 in /  1025.6 hPa NE 6.1 mph /  9.8 km/h 10.4 mph /  16.7 km/h 83 % 0.00 in /  0 mm
03:59 41.0 °F /  5 °C 36.2 °F /  2.3 °C 30.30 in /  1026 hPa NE 4.0 mph /  6.4 km/h 6.9 mph /  11.1 km/h 83 % 0.00 in /  0 mm
04:04 41.0 °F /  5 °C 36.2 °F /  2.3 °C 30.29 in /  1025.6 hPa NE 2.4 mph /  3.9 km/h 3.5 mph /  5.6 km/h 83 % 0.00 in /  0 mm
04:09 41.0 °F /  5 °C 36.2 °F /  2.3 °C 30.29 in /  1025.6 hPa ENE 4.5 mph /  7.2 km/h 8.0 mph /  12.9 km/h 83 % 0.00 in /  0 mm
04:14 41.0 °F /  5 °C 36.2 °F /  2.3 °C 30.30 in /  1026 hPa ENE 2.5 mph /  4 km/h 4.0 mph /  6.4 km/h 83 % 0.00 in /  0 mm
04:19 40.9 °F /  4.9 °C 36.1 °F /  2.3 °C 30.30 in /  1026 hPa ENE 2.9 mph /  4.7 km/h 8.1 mph /  13 km/h 83 % 0.00 in /  0 mm
04:25 40.9 °F /  4.9 °C 36.1 °F /  2.3 °C 30.30 in /  1026 hPa ENE 3.3 mph /  5.3 km/h 6.9 mph /  11.1 km/h 83 % 0.00 in /  0 mm
04:30 40.8 °F /  4.9 °C 35.7 °F /  2.1 °C 30.30 in /  1026 hPa NE 1.1 mph /  1.8 km/h 4.6 mph /  7.4 km/h 82 % 0.00 in /  0 mm
04:35 40.8 °F /  4.9 °C 35.7 °F /  2.1 °C 30.29 in /  1025.6 hPa ENE 3.1 mph /  5 km/h 5.0 mph /  8 km/h 82 % 0.00 in /  0 mm
04:40 40.8 °F /  4.9 °C 35.7 °F /  2.1 °C 30.30 in /  1026 hPa NNE 1.3 mph /  2.1 km/h 9.2 mph /  14.8 km/h 82 % 0.00 in /  0 mm
04:45 40.8 °F /  4.9 °C 35.7 °F /  2.1 °C 30.29 in /  1025.6 hPa ENE 3.6 mph /  5.8 km/h 6.9 mph /  11.1 km/h 82 % 0.00 in /  0 mm
04:50 40.7 °F /  4.8 °C 35.6 °F /  2 °C 30.30 in /  1026 hPa NE 4.5 mph /  7.2 km/h 9.2 mph /  14.8 km/h 82 % 0.00 in /  0 mm
04:55 40.7 °F /  4.8 °C 35.6 °F /  2 °C 30.30 in /  1026 hPa ENE 4.1 mph /  6.6 km/h 6.9 mph /  11.1 km/h 82 % 0.00 in /  0 mm
05:00 40.7 °F /  4.8 °C 35.6 °F /  2 °C 30.29 in /  1025.6 hPa ENE 4.1 mph /  6.6 km/h 8.1 mph /  13 km/h 82 % 0.00 in /  0 mm
05:05 40.6 °F /  4.8 °C 35.5 °F /  1.9 °C 30.29 in /  1025.6 hPa East 4.6 mph /  7.4 km/h 8.1 mph /  13 km/h 82 % 0.00 in /  0 mm
05:10 40.6 °F /  4.8 °C 35.5 °F /  1.9 °C 30.29 in /  1025.6 hPa NE 1.5 mph /  2.4 km/h 3.5 mph /  5.6 km/h 82 % 0.00 in /  0 mm
05:15 40.6 °F /  4.8 °C 35.5 °F /  1.9 °C 30.29 in /  1025.6 hPa NNE 2.2 mph /  3.5 km/h 4.6 mph /  7.4 km/h 82 % 0.00 in /  0 mm
05:20 40.5 °F /  4.7 °C 35.4 °F /  1.9 °C 30.29 in /  1025.6 hPa ENE 4.4 mph /  7.1 km/h 6.9 mph /  11.1 km/h 82 % 0.00 in /  0 mm
05:25 40.4 °F /  4.7 °C 35.3 °F /  1.8 °C 30.29 in /  1025.6 hPa ENE 3.2 mph /  5.1 km/h 4.6 mph /  7.4 km/h 82 % 0.00 in /  0 mm
05:30 40.4 °F /  4.7 °C 35.3 °F /  1.8 °C 30.30 in /  1026 hPa NE 2.9 mph /  4.7 km/h 3.5 mph /  5.6 km/h 82 % 0.00 in /  0 mm
05:35 40.3 °F /  4.6 °C 35.2 °F /  1.8 °C 30.30 in /  1026 hPa ENE 5.5 mph /  8.9 km/h 8.1 mph /  13 km/h 82 % 0.00 in /  0 mm
05:40 40.3 °F /  4.6 °C 35.2 °F /  1.8 °C 30.30 in /  1026 hPa ENE 1.6 mph /  2.6 km/h 3.5 mph /  5.6 km/h 82 % 0.00 in /  0 mm
05:45 40.3 °F /  4.6 °C 35.2 °F /  1.8 °C 30.30 in /  1026 hPa ENE 3.8 mph /  6.1 km/h 5.0 mph /  8 km/h 82 % 0.00 in /  0 mm
05:50 40.2 °F /  4.6 °C 35.1 °F /  1.7 °C 30.29 in /  1025.6 hPa NE 2.3 mph /  3.7 km/h 6.9 mph /  11.1 km/h 82 % 0.00 in /  0 mm
05:55 40.2 °F /  4.6 °C 35.4 °F /  1.9 °C 30.29 in /  1025.6 hPa ENE 1.9 mph /  3.1 km/h 4.0 mph /  6.4 km/h 83 % 0.00 in /  0 mm
06:05 40.1 °F /  4.5 °C 35.4 °F /  1.9 °C 30.29 in /  1025.6 hPa NE 2.7 mph /  4.3 km/h 5.0 mph /  8 km/h 83 % 0.00 in /  0 mm
06:10 40.0 °F /  4.4 °C 35.3 °F /  1.8 °C 30.29 in /  1025.6 hPa NE 4.4 mph /  7.1 km/h 7.0 mph /  11.3 km/h 83 % 0.00 in /  0 mm
06:15 40.0 °F /  4.4 °C 35.3 °F /  1.8 °C 30.29 in /  1025.6 hPa NNE 1.9 mph /  3.1 km/h 3.5 mph /  5.6 km/h 83 % 0.00 in /  0 mm
06:20 39.9 °F /  4.4 °C 35.5 °F /  1.9 °C 30.29 in /  1025.6 hPa ENE 4.7 mph /  7.6 km/h 6.9 mph /  11.1 km/h 84 % 0.00 in /  0 mm
06:25 39.8 °F /  4.3 °C 35.4 °F /  1.9 °C 30.29 in /  1025.6 hPa NNE 2.0 mph /  3.2 km/h 4.6 mph /  7.4 km/h 84 % 0.00 in /  0 mm
06:30 39.8 °F /  4.3 °C 35.4 °F /  1.9 °C 30.29 in /  1025.6 hPa NE 4.7 mph /  7.6 km/h 8.1 mph /  13 km/h 84 % 0.00 in /  0 mm
06:35 39.8 °F /  4.3 °C 35.4 °F /  1.9 °C 30.29 in /  1025.6 hPa NNE 3.9 mph /  6.3 km/h 5.8 mph /  9.3 km/h 84 % 0.00 in /  0 mm
06:40 39.7 °F /  4.3 °C 35.3 °F /  1.8 °C 30.29 in /  1025.6 hPa NNE 1.4 mph /  2.3 km/h 3.5 mph /  5.6 km/h 84 % 0.00 in /  0 mm
06:46 39.7 °F /  4.3 °C 35.3 °F /  1.8 °C 30.29 in /  1025.6 hPa NNE 3.3 mph /  5.3 km/h 4.0 mph /  6.4 km/h 84 % 0.00 in /  0 mm
06:51 39.7 °F /  4.3 °C 35.6 °F /  2 °C 30.29 in /  1025.6 hPa NE 3.0 mph /  4.8 km/h 10.0 mph /  16.1 km/h 85 % 0.00 in /  0 mm
06:56 39.6 °F /  4.2 °C 35.5 °F /  1.9 °C 30.29 in /  1025.6 hPa NE 3.0 mph /  4.8 km/h 8.0 mph /  12.9 km/h 85 % 0.00 in /  0 mm
07:01 39.6 °F /  4.2 °C 35.5 °F /  1.9 °C 30.30 in /  1026 hPa NE 0.9 mph /  1.4 km/h 3.5 mph /  5.6 km/h 85 % 0.00 in /  0 mm
07:06 39.6 °F /  4.2 °C 35.5 °F /  1.9 °C 30.30 in /  1026 hPa ENE 4.1 mph /  6.6 km/h 5.8 mph /  9.3 km/h 85 % 0.00 in /  0 mm
07:11 39.6 °F /  4.2 °C 35.5 °F /  1.9 °C 30.29 in /  1025.6 hPa ENE 6.4 mph /  10.3 km/h 8.0 mph /  12.9 km/h 85 % 0.00 in /  0 mm
07:16 39.6 °F /  4.2 °C 35.2 °F /  1.8 °C 30.29 in /  1025.6 hPa ENE 4.6 mph /  7.4 km/h 7.0 mph /  11.3 km/h 84 % 0.00 in /  0 mm
07:21 39.7 °F /  4.3 °C 35.6 °F /  2 °C 30.29 in /  1025.6 hPa ENE 6.3 mph /  10.1 km/h 9.2 mph /  14.8 km/h 85 % 0.00 in /  0 mm
07:31 39.9 °F /  4.4 °C 35.8 °F /  2.1 °C 30.30 in /  1026 hPa ENE 5.4 mph /  8.7 km/h 8.1 mph /  13 km/h 85 % 0.00 in /  0 mm
07:36 40.0 °F /  4.4 °C 35.9 °F /  2.2 °C 30.30 in /  1026 hPa East 3.5 mph /  5.6 km/h 7.0 mph /  11.3 km/h 85 % 0.00 in /  0 mm
07:41 40.1 °F /  4.5 °C 36.0 °F /  2.2 °C 30.30 in /  1026 hPa NE 4.4 mph /  7.1 km/h 8.1 mph /  13 km/h 85 % 0.00 in /  0 mm
07:46 40.1 °F /  4.5 °C 36.0 °F /  2.2 °C 30.30 in /  1026 hPa ENE 4.9 mph /  7.9 km/h 9.2 mph /  14.8 km/h 85 % 0.00 in /  0 mm
07:51 40.2 °F /  4.6 °C 36.3 °F /  2.4 °C 30.30 in /  1026 hPa ENE 3.9 mph /  6.3 km/h 6.9 mph /  11.1 km/h 86 % 0.00 in /  0 mm
07:56 40.3 °F /  4.6 °C 36.4 °F /  2.4 °C 30.30 in /  1026 hPa ENE 1.8 mph /  2.9 km/h 3.5 mph /  5.6 km/h 86 % 0.00 in /  0 mm
08:01 40.5 °F /  4.7 °C 36.6 °F /  2.6 °C 30.30 in /  1026 hPa ENE 6.3 mph /  10.1 km/h 9.2 mph /  14.8 km/h 86 % 0.00 in /  0 mm
08:06 40.6 °F /  4.8 °C 36.7 °F /  2.6 °C 30.30 in /  1026 hPa NE 6.2 mph /  10 km/h 8.1 mph /  13 km/h 86 % 0.00 in /  0 mm
08:11 40.9 °F /  4.9 °C 36.7 °F /  2.6 °C 30.30 in /  1026 hPa ENE 5.0 mph /  8 km/h 9.2 mph /  14.8 km/h 85 % 0.00 in /  0 mm
08:16 41.0 °F /  5 °C 36.8 °F /  2.7 °C 30.30 in /  1026 hPa ENE 5.4 mph /  8.7 km/h 10.4 mph /  16.7 km/h 85 % 0.00 in /  0 mm
08:21 41.2 °F /  5.1 °C 37.0 °F /  2.8 °C 30.30 in /  1026 hPa ENE 5.1 mph /  8.2 km/h 10.4 mph /  16.7 km/h 85 % 0.00 in /  0 mm
08:26 41.3 °F /  5.2 °C 37.1 °F /  2.8 °C 30.30 in /  1026 hPa NE 5.3 mph /  8.5 km/h 10.4 mph /  16.7 km/h 85 % 0.00 in /  0 mm
08:31 41.4 °F /  5.2 °C 37.2 °F /  2.9 °C 30.31 in /  1026.3 hPa NE 5.8 mph /  9.3 km/h 10.4 mph /  16.7 km/h 85 % 0.00 in /  0 mm
08:36 41.6 °F /  5.3 °C 37.4 °F /  3 °C 30.31 in /  1026.3 hPa NE 6.8 mph /  10.9 km/h 8.1 mph /  13 km/h 85 % 0.00 in /  0 mm
08:41 41.8 °F /  5.4 °C 37.6 °F /  3.1 °C 30.31 in /  1026.3 hPa ENE 6.4 mph /  10.3 km/h 11.5 mph /  18.5 km/h 85 % 0.00 in /  0 mm
08:46 42.0 °F /  5.6 °C 37.8 °F /  3.2 °C 30.30 in /  1026 hPa ENE 5.4 mph /  8.7 km/h 9.2 mph /  14.8 km/h 85 % 0.00 in /  0 mm
08:51 42.2 °F /  5.7 °C 37.7 °F /  3.2 °C 30.30 in /  1026 hPa ENE 5.6 mph /  9 km/h 9.2 mph /  14.8 km/h 84 % 0.00 in /  0 mm
08:56 42.3 °F /  5.7 °C 37.8 °F /  3.2 °C 30.30 in /  1026 hPa ENE 7.7 mph /  12.4 km/h 10.4 mph /  16.7 km/h 84 % 0.00 in /  0 mm
09:01 42.4 °F /  5.8 °C 37.9 °F /  3.3 °C 30.30 in /  1026 hPa East 7.0 mph /  11.3 km/h 10.4 mph /  16.7 km/h 84 % 0.00 in /  0 mm
09:06 42.5 °F /  5.8 °C 37.7 °F /  3.2 °C 30.30 in /  1026 hPa NE 7.0 mph /  11.3 km/h 8.1 mph /  13 km/h 83 % 0.00 in /  0 mm
09:11 42.5 °F /  5.8 °C 38.0 °F /  3.3 °C 30.30 in /  1026 hPa ENE 6.3 mph /  10.1 km/h 11.5 mph /  18.5 km/h 84 % 0.00 in /  0 mm
09:16 42.5 °F /  5.8 °C 37.7 °F /  3.2 °C 30.29 in /  1025.6 hPa ENE 7.2 mph /  11.6 km/h 11.5 mph /  18.5 km/h 83 % 0.00 in /  0 mm
09:19 42.5 °F /  5.8 °C 37.7 °F /  3.2 °C 30.29 in /  1025.6 hPa NE 6.0 mph /  9.7 km/h 8.1 mph /  13 km/h 83 % 0.00 in /  0 mm
09:24 42.8 °F /  6 °C 38.3 °F /  3.5 °C 30.29 in /  1025.6 hPa ENE 6.9 mph /  11.1 km/h 9.2 mph /  14.8 km/h 84 % 0.00 in /  0 mm
09:29 42.9 °F /  6.1 °C 38.4 °F /  3.6 °C 30.30 in /  1026 hPa ENE 5.0 mph /  8 km/h 8.1 mph /  13 km/h 84 % 0.00 in /  0 mm
09:34 42.9 °F /  6.1 °C 38.1 °F /  3.4 °C 30.30 in /  1026 hPa NE 5.7 mph /  9.2 km/h 9.0 mph /  14.5 km/h 83 % 0.00 in /  0 mm
09:44 43.1 °F /  6.2 °C 38.3 °F /  3.5 °C 30.29 in /  1025.6 hPa ENE 4.9 mph /  7.9 km/h 8.1 mph /  13 km/h 83 % 0.00 in /  0 mm
09:49 43.4 °F /  6.3 °C 38.9 °F /  3.8 °C 30.29 in /  1025.6 hPa NE 5.7 mph /  9.2 km/h 10.4 mph /  16.7 km/h 84 % 0.00 in /  0 mm
09:54 43.7 °F /  6.5 °C 38.6 °F /  3.7 °C 30.28 in /  1025.3 hPa ENE 4.0 mph /  6.4 km/h 9.2 mph /  14.8 km/h 82 % 0.00 in /  0 mm
09:59 43.6 °F /  6.4 °C 38.8 °F /  3.8 °C 30.28 in /  1025.3 hPa ENE 3.1 mph /  5 km/h 6.9 mph /  11.1 km/h 83 % 0.00 in /  0 mm
10:04 43.5 °F /  6.4 °C 38.7 °F /  3.7 °C 30.29 in /  1025.6 hPa East 3.4 mph /  5.5 km/h 5.8 mph /  9.3 km/h 83 % 0.00 in /  0 mm
10:09 43.6 °F /  6.4 °C 39.1 °F /  3.9 °C 30.28 in /  1025.3 hPa ENE 6.4 mph /  10.3 km/h 9.2 mph /  14.8 km/h 84 % 0.00 in /  0 mm
10:14 43.7 °F /  6.5 °C 38.6 °F /  3.7 °C 30.29 in /  1025.6 hPa East 3.6 mph /  5.8 km/h 8.1 mph /  13 km/h 82 % 0.00 in /  0 mm
10:19 43.7 °F /  6.5 °C 38.3 °F /  3.5 °C 30.28 in /  1025.3 hPa NE 4.7 mph /  7.6 km/h 6.9 mph /  11.1 km/h 81 % 0.00 in /  0 mm
10:24 44.0 °F /  6.7 °C 38.2 °F /  3.4 °C 30.28 in /  1025.3 hPa East 6.8 mph /  10.9 km/h 10.4 mph /  16.7 km/h 80 % 0.00 in /  0 mm
10:29 44.1 °F /  6.7 °C 38.3 °F /  3.5 °C 30.28 in /  1025.3 hPa ENE 4.6 mph /  7.4 km/h 11.5 mph /  18.5 km/h 80 % 0.00 in /  0 mm
10:34 44.6 °F /  7 °C 39.4 °F /  4.1 °C 30.28 in /  1025.3 hPa ENE 3.9 mph /  6.3 km/h 8.0 mph /  12.9 km/h 82 % 0.00 in /  0 mm
10:39 45.3 °F /  7.4 °C 39.8 °F /  4.3 °C 30.27 in /  1024.9 hPa ENE 4.7 mph /  7.6 km/h 6.9 mph /  11.1 km/h 81 % 0.00 in /  0 mm
10:44 45.6 °F /  7.6 °C 39.1 °F /  3.9 °C 30.27 in /  1024.9 hPa East 3.3 mph /  5.3 km/h 8.1 mph /  13 km/h 78 % 0.00 in /  0 mm
10:55 46.5 °F /  8.1 °C 40.0 °F /  4.4 °C 30.26 in /  1024.6 hPa ENE 3.5 mph /  5.6 km/h 8.1 mph /  13 km/h 78 % 0.00 in /  0 mm
11:00 46.5 °F /  8.1 °C 39.7 °F /  4.3 °C 30.26 in /  1024.6 hPa ENE 2.4 mph /  3.9 km/h 4.6 mph /  7.4 km/h 77 % 0.00 in /  0 mm
11:05 46.4 °F /  8 °C 39.9 °F /  4.4 °C 30.26 in /  1024.6 hPa ENE 4.2 mph /  6.8 km/h 8.0 mph /  12.9 km/h 78 % 0.00 in /  0 mm
11:10 46.3 °F /  7.9 °C 39.5 °F /  4.2 °C 30.25 in /  1024.3 hPa East 2.4 mph /  3.9 km/h 5.0 mph /  8 km/h 77 % 0.00 in /  0 mm
11:15 46.4 °F /  8 °C 39.9 °F /  4.4 °C 30.25 in /  1024.3 hPa East 0.9 mph /  1.4 km/h 3.5 mph /  5.6 km/h 78 % 0.00 in /  0 mm
11:18 46.5 °F /  8.1 °C 39.7 °F /  4.3 °C 30.25 in /  1024.3 hPa ENE 7.8 mph /  12.6 km/h 9.2 mph /  14.8 km/h 77 % 0.00 in /  0 mm
11:23 46.5 °F /  8.1 °C 39.0 °F /  3.9 °C 30.24 in /  1023.9 hPa ENE 1.6 mph /  2.6 km/h 2.3 mph /  3.7 km/h 75 % 0.00 in /  0 mm
11:28 46.6 °F /  8.1 °C 39.1 °F /  3.9 °C 30.25 in /  1024.3 hPa NE 1.1 mph /  1.8 km/h 3.5 mph /  5.6 km/h 75 % 0.00 in /  0 mm
11:33 46.7 °F /  8.2 °C 39.2 °F /  4 °C 30.24 in /  1023.9 hPa East 3.4 mph /  5.5 km/h 8.1 mph /  13 km/h 75 % 0.00 in /  0 mm
11:38 46.6 °F /  8.1 °C 38.4 °F /  3.6 °C 30.24 in /  1023.9 hPa ENE 2.9 mph /  4.7 km/h 4.6 mph /  7.4 km/h 73 % 0.00 in /  0 mm
11:43 46.6 °F /  8.1 °C 38.8 °F /  3.8 °C 30.24 in /  1023.9 hPa ENE 2.3 mph /  3.7 km/h 5.0 mph /  8 km/h 74 % 0.00 in /  0 mm
11:48 46.7 °F /  8.2 °C 38.9 °F /  3.8 °C 30.24 in /  1023.9 hPa East 2.5 mph /  4 km/h 6.0 mph /  9.7 km/h 74 % 0.00 in /  0 mm
11:50 46.7 °F /  8.2 °C 38.9 °F /  3.8 °C 30.24 in /  1023.9 hPa ENE 3.6 mph /  5.8 km/h 5.8 mph /  9.3 km/h 74 % 0.00 in /  0 mm
11:55 46.7 °F /  8.2 °C 39.2 °F /  4 °C 30.23 in /  1023.6 hPa ENE 1.8 mph /  2.9 km/h 3.5 mph /  5.6 km/h 75 % 0.00 in /  0 mm
12:00 47.2 °F /  8.4 °C 40.0 °F /  4.4 °C 30.23 in /  1023.6 hPa ENE 2.7 mph /  4.3 km/h 5.8 mph /  9.3 km/h 76 % 0.00 in /  0 mm
12:05 47.6 °F /  8.7 °C 40.4 °F /  4.7 °C 30.23 in /  1023.6 hPa ENE 1.7 mph /  2.7 km/h 3.5 mph /  5.6 km/h 76 % 0.00 in /  0 mm
12:10 47.7 °F /  8.7 °C 39.8 °F /  4.3 °C 30.22 in /  1023.2 hPa ENE 2.9 mph /  4.7 km/h 9.2 mph /  14.8 km/h 74 % 0.00 in /  0 mm
12:15 47.5 °F /  8.6 °C 39.3 °F /  4.1 °C 30.22 in /  1023.2 hPa ENE 4.4 mph /  7.1 km/h 8.1 mph /  13 km/h 73 % 0.00 in /  0 mm
12:20 47.5 °F /  8.6 °C 38.9 °F /  3.8 °C 30.21 in /  1022.9 hPa ENE 1.3 mph /  2.1 km/h 6.9 mph /  11.1 km/h 72 % 0.00 in /  0 mm
12:25 47.3 °F /  8.5 °C 38.4 °F /  3.6 °C 30.21 in /  1022.9 hPa ENE 4.2 mph /  6.8 km/h 7.0 mph /  11.3 km/h 71 % 0.00 in /  0 mm
12:30 47.4 °F /  8.6 °C 39.2 °F /  4 °C 30.21 in /  1022.9 hPa ENE 4.0 mph /  6.4 km/h 6.9 mph /  11.1 km/h 73 % 0.00 in /  0 mm
12:35 47.5 °F /  8.6 °C 38.9 °F /  3.8 °C 30.21 in /  1022.9 hPa NE 1.7 mph /  2.7 km/h 3.5 mph /  5.6 km/h 72 % 0.00 in /  0 mm
12:40 47.4 °F /  8.6 °C 38.5 °F /  3.6 °C 30.20 in /  1022.6 hPa ENE 5.8 mph /  9.3 km/h 8.1 mph /  13 km/h 71 % 0.00 in /  0 mm
12:45 47.4 °F /  8.6 °C 38.8 °F /  3.8 °C 30.20 in /  1022.6 hPa ENE 2.3 mph /  3.7 km/h 3.5 mph /  5.6 km/h 72 % 0.00 in /  0 mm
12:50 47.3 °F /  8.5 °C 38.7 °F /  3.7 °C 30.20 in /  1022.6 hPa ENE 4.9 mph /  7.9 km/h 6.9 mph /  11.1 km/h 72 % 0.00 in /  0 mm
12:55 47.2 °F /  8.4 °C 38.6 °F /  3.7 °C 30.20 in /  1022.6 hPa NE 2.6 mph /  4.2 km/h 5.8 mph /  9.3 km/h 72 % 0.00 in /  0 mm
13:00 47.2 °F /  8.4 °C 39.0 °F /  3.9 °C 30.21 in /  1022.9 hPa ENE 0.1 mph /  0.2 km/h 1.2 mph /  1.9 km/h 73 % 0.00 in /  0 mm
13:05 47.3 °F /  8.5 °C 39.1 °F /  3.9 °C 30.20 in /  1022.6 hPa ENE 2.9 mph /  4.7 km/h 4.0 mph /  6.4 km/h 73 % 0.00 in /  0 mm
13:10 47.4 °F /  8.6 °C 38.8 °F /  3.8 °C 30.20 in /  1022.6 hPa ENE 1.0 mph /  1.6 km/h 5.0 mph /  8 km/h 72 % 0.00 in /  0 mm
13:16 47.5 °F /  8.6 °C 39.0 °F /  3.9 °C 30.19 in /  1022.2 hPa ENE 2.0 mph /  3.2 km/h 7.0 mph /  11.3 km/h 72 % 0.00 in /  0 mm
13:21 47.7 °F /  8.7 °C 38.8 °F /  3.8 °C 30.19 in /  1022.2 hPa ENE 6.0 mph /  9.7 km/h 9.0 mph /  14.5 km/h 71 % 0.00 in /  0 mm
13:25 48.0 °F /  8.9 °C 39.0 °F /  3.9 °C 30.19 in /  1022.2 hPa ENE 3.8 mph /  6.1 km/h 3.8 mph /  6.1 km/h 71 % 0.00 in /  0 mm
13:31 48.3 °F /  9.1 °C 39.3 °F /  4.1 °C 30.19 in /  1022.2 hPa ENE 3.0 mph /  4.8 km/h 8.0 mph /  12.9 km/h 71 % 0.00 in /  0 mm
13:35 48.6 °F /  9.2 °C 39.6 °F /  4.2 °C 30.18 in /  1021.9 hPa ENE 3.0 mph /  4.8 km/h 7.0 mph /  11.3 km/h 71 % 0.00 in /  0 mm
13:40 48.7 °F /  9.3 °C 39.4 °F /  4.1 °C 30.18 in /  1021.9 hPa ENE 3.0 mph /  4.8 km/h 8.0 mph /  12.9 km/h 70 % 0.00 in /  0 mm
13:46 48.7 °F /  9.3 °C 39.0 °F /  3.9 °C 30.18 in /  1021.9 hPa ENE 6.0 mph /  9.7 km/h 9.0 mph /  14.5 km/h 69 % 0.00 in /  0 mm
13:51 48.5 °F /  9.2 °C 39.1 °F /  3.9 °C 30.18 in /  1021.9 hPa ENE 2.0 mph /  3.2 km/h 5.0 mph /  8 km/h 70 % 0.00 in /  0 mm
13:55 48.3 °F /  9.1 °C 39.0 °F /  3.9 °C 30.17 in /  1021.6 hPa ENE 5.0 mph /  8 km/h 8.0 mph /  12.9 km/h 70 % 0.00 in /  0 mm
14:01 48.3 °F /  9.1 °C 39.0 °F /  3.9 °C 30.17 in /  1021.6 hPa ENE 4.0 mph /  6.4 km/h 6.9 mph /  11.1 km/h 70 % 0.00 in /  0 mm
14:06 48.3 °F /  9.1 °C 39.0 °F /  3.9 °C 30.17 in /  1021.6 hPa ENE 2.1 mph /  3.4 km/h 4.6 mph /  7.4 km/h 70 % 0.00 in /  0 mm
14:11 48.3 °F /  9.1 °C 39.0 °F /  3.9 °C 30.17 in /  1021.6 hPa ENE 0.8 mph /  1.3 km/h 2.3 mph /  3.7 km/h 70 % 0.00 in /  0 mm
14:16 48.2 °F /  9 °C 38.9 °F /  3.8 °C 30.17 in /  1021.6 hPa ENE 3.0 mph /  4.8 km/h 4.6 mph /  7.4 km/h 70 % 0.00 in /  0 mm
14:21 48.1 °F /  8.9 °C 38.8 °F /  3.8 °C 30.17 in /  1021.6 hPa ENE 3.4 mph /  5.5 km/h 5.0 mph /  8 km/h 70 % 0.00 in /  0 mm
14:26 47.9 °F /  8.8 °C 38.9 °F /  3.8 °C 30.17 in /  1021.6 hPa ENE 2.7 mph /  4.3 km/h 7.0 mph /  11.3 km/h 71 % 0.00 in /  0 mm
14:31 47.8 °F /  8.8 °C 39.2 °F /  4 °C 30.18 in /  1021.9 hPa NE 2.9 mph /  4.7 km/h 4.0 mph /  6.4 km/h 72 % 0.00 in /  0 mm
14:36 47.7 °F /  8.7 °C 39.1 °F /  3.9 °C 30.18 in /  1021.9 hPa ENE 0.2 mph /  0.3 km/h 1.2 mph /  1.9 km/h 72 % 0.00 in /  0 mm
14:41 47.7 °F /  8.7 °C 39.1 °F /  3.9 °C 30.17 in /  1021.6 hPa ENE 0.8 mph /  1.3 km/h 1.2 mph /  1.9 km/h 72 % 0.00 in /  0 mm
14:46 47.6 °F /  8.7 °C 39.0 °F /  3.9 °C 30.17 in /  1021.6 hPa Calm   3.5 mph /  5.6 km/h 72 % 0.00 in /  0 mm
14:51 47.6 °F /  8.7 °C 39.0 °F /  3.9 °C 30.17 in /  1021.6 hPa ENE 0.1 mph /  0.2 km/h 2.3 mph /  3.7 km/h 72 % 0.00 in /  0 mm
14:56 47.5 °F /  8.6 °C 38.6 °F /  3.7 °C 30.17 in /  1021.6 hPa Calm   1.2 mph /  1.9 km/h 71 % 0.00 in /  0 mm
15:01 47.5 °F /  8.6 °C 38.9 °F /  3.8 °C 30.17 in /  1021.6 hPa ENE 0.5 mph /  0.8 km/h 1.2 mph /  1.9 km/h 72 % 0.00 in /  0 mm
15:06 47.6 °F /  8.7 °C 39.0 °F /  3.9 °C 30.17 in /  1021.6 hPa Calm     72 % 0.00 in /  0 mm
15:11 47.7 °F /  8.7 °C 39.1 °F /  3.9 °C 30.16 in /  1021.2 hPa ENE 0.1 mph /  0.2 km/h 2.0 mph /  3.2 km/h 72 % 0.00 in /  0 mm
15:16 47.8 °F /  8.8 °C 38.8 °F /  3.8 °C 30.16 in /  1021.2 hPa East 0.2 mph /  0.3 km/h 1.2 mph /  1.9 km/h 71 % 0.00 in /  0 mm
15:21 47.8 °F /  8.8 °C 38.8 °F /  3.8 °C 30.16 in /  1021.2 hPa Calm     71 % 0.00 in /  0 mm
15:26 47.7 °F /  8.7 °C 38.8 °F /  3.8 °C 30.16 in /  1021.2 hPa East 0.8 mph /  1.3 km/h 2.3 mph /  3.7 km/h 71 % 0.00 in /  0 mm
15:32 47.6 °F /  8.7 °C 38.7 °F /  3.7 °C 30.16 in /  1021.2 hPa Calm   1.2 mph /  1.9 km/h 71 % 0.00 in /  0 mm
15:37 47.6 °F /  8.7 °C 38.7 °F /  3.7 °C 30.17 in /  1021.6 hPa Calm     71 % 0.00 in /  0 mm
15:42 47.5 °F /  8.6 °C 38.6 °F /  3.7 °C 30.17 in /  1021.6 hPa Calm     71 % 0.00 in /  0 mm
15:47 47.4 °F /  8.6 °C 38.8 °F /  3.8 °C 30.16 in /  1021.2 hPa Calm     72 % 0.00 in /  0 mm
15:52 47.3 °F /  8.5 °C 39.1 °F /  3.9 °C 30.16 in /  1021.2 hPa East 0.6 mph /  1 km/h 2.3 mph /  3.7 km/h 73 % 0.00 in /  0 mm
15:57 47.1 °F /  8.4 °C 38.9 °F /  3.8 °C 30.17 in /  1021.6 hPa Calm     73 % 0.00 in /  0 mm
16:02 47.0 °F /  8.3 °C 38.8 °F /  3.8 °C 30.17 in /  1021.6 hPa Calm     73 % 0.00 in /  0 mm
16:07 47.0 °F /  8.3 °C 38.8 °F /  3.8 °C 30.17 in /  1021.6 hPa Calm     73 % 0.00 in /  0 mm
16:12 46.9 °F /  8.3 °C 38.7 °F /  3.7 °C 30.17 in /  1021.6 hPa Calm     73 % 0.00 in /  0 mm
16:17 46.8 °F /  8.2 °C 38.6 °F /  3.7 °C 30.17 in /  1021.6 hPa Calm     73 % 0.00 in /  0 mm
16:22 46.7 °F /  8.2 °C 38.5 °F /  3.6 °C 30.17 in /  1021.6 hPa Calm     73 % 0.00 in /  0 mm
16:27 46.5 °F /  8.1 °C 38.7 °F /  3.7 °C 30.17 in /  1021.6 hPa Calm     74 % 0.00 in /  0 mm
16:32 46.4 °F /  8 °C 38.6 °F /  3.7 °C 30.17 in /  1021.6 hPa Calm     74 % 0.00 in /  0 mm
16:37 46.3 °F /  7.9 °C 38.5 °F /  3.6 °C 30.16 in /  1021.2 hPa Calm     74 % 0.00 in /  0 mm
16:42 46.1 °F /  7.8 °C 38.3 °F /  3.5 °C 30.16 in /  1021.2 hPa Calm     74 % 0.00 in /  0 mm
16:47 46.0 °F /  7.8 °C 38.5 °F /  3.6 °C 30.16 in /  1021.2 hPa East 0.1 mph /  0.2 km/h 1.2 mph /  1.9 km/h 75 % 0.00 in /  0 mm
16:52 45.9 °F /  7.7 °C 38.4 °F /  3.6 °C 30.16 in /  1021.2 hPa Calm   1.2 mph /  1.9 km/h 75 % 0.00 in /  0 mm
16:57 45.8 °F /  7.7 °C 38.3 °F /  3.5 °C 30.16 in /  1021.2 hPa Calm   1.2 mph /  1.9 km/h 75 % 0.00 in /  0 mm
17:00 45.7 °F /  7.6 °C 38.2 °F /  3.4 °C 30.16 in /  1021.2 hPa East 0.1 mph /  0.2 km/h 1.2 mph /  1.9 km/h 75 % 0.00 in /  0 mm
17:05 45.6 °F /  7.6 °C 38.1 °F /  3.4 °C 30.16 in /  1021.2 hPa East 0.5 mph /  0.8 km/h 2.3 mph /  3.7 km/h 75 % 0.00 in /  0 mm
17:07 45.6 °F /  7.6 °C 38.1 °F /  3.4 °C 30.16 in /  1021.2 hPa East 0.6 mph /  1 km/h 1.2 mph /  1.9 km/h 75 % 0.00 in /  0 mm
17:12 45.6 °F /  7.6 °C 38.1 °F /  3.4 °C 30.16 in /  1021.2 hPa East 0.3 mph /  0.5 km/h 1.2 mph /  1.9 km/h 75 % 0.00 in /  0 mm
17:17 45.5 °F /  7.5 °C 38.0 °F /  3.3 °C 30.15 in /  1020.9 hPa East 0.5 mph /  0.8 km/h 1.2 mph /  1.9 km/h 75 % 0.00 in /  0 mm
17:22 45.4 °F /  7.4 °C 37.6 °F /  3.1 °C 30.15 in /  1020.9 hPa East 0.3 mph /  0.5 km/h 2.3 mph /  3.7 km/h 74 % 0.00 in /  0 mm
17:27 45.4 °F /  7.4 °C 37.6 °F /  3.1 °C 30.16 in /  1021.2 hPa Calm   1.2 mph /  1.9 km/h 74 % 0.00 in /  0 mm
17:32 45.4 °F /  7.4 °C 37.6 °F /  3.1 °C 30.15 in /  1020.9 hPa Calm   1.2 mph /  1.9 km/h 74 % 0.00 in /  0 mm
17:37 45.3 °F /  7.4 °C 37.5 °F /  3.1 °C 30.16 in /  1021.2 hPa ESE 0.3 mph /  0.5 km/h 2.3 mph /  3.7 km/h 74 % 0.00 in /  0 mm
17:42 45.3 °F /  7.4 °C 37.2 °F /  2.9 °C 30.15 in /  1020.9 hPa ESE 0.5 mph /  0.8 km/h 2.3 mph /  3.7 km/h 73 % 0.00 in /  0 mm
17:47 45.3 °F /  7.4 °C 37.5 °F /  3.1 °C 30.15 in /  1020.9 hPa ESE 0.2 mph /  0.3 km/h 1.2 mph /  1.9 km/h 74 % 0.00 in /  0 mm
17:52 45.2 °F /  7.3 °C 37.4 °F /  3 °C 30.16 in /  1021.2 hPa Calm   1.2 mph /  1.9 km/h 74 % 0.00 in /  0 mm
17:57 45.2 °F /  7.3 °C 37.4 °F /  3 °C 30.16 in /  1021.2 hPa Calm     74 % 0.00 in /  0 mm
18:02 45.2 °F /  7.3 °C 37.4 °F /  3 °C 30.16 in /  1021.2 hPa SE 0.5 mph /  0.8 km/h 3.5 mph /  5.6 km/h 74 % 0.00 in /  0 mm
18:07 45.1 °F /  7.3 °C 37.3 °F /  2.9 °C 30.15 in /  1020.9 hPa SE 0.2 mph /  0.3 km/h 2.0 mph /  3.2 km/h 74 % 0.00 in /  0 mm
18:12 45.0 °F /  7.2 °C 36.9 °F /  2.7 °C 30.15 in /  1020.9 hPa SE 0.3 mph /  0.5 km/h 3.5 mph /  5.6 km/h 73 % 0.00 in /  0 mm
18:17 45.0 °F /  7.2 °C 36.9 °F /  2.7 °C 30.15 in /  1020.9 hPa ESE 2.5 mph /  4 km/h 6.9 mph /  11.1 km/h 73 % 0.00 in /  0 mm
18:22 45.0 °F /  7.2 °C 36.9 °F /  2.7 °C 30.15 in /  1020.9 hPa Calm     73 % 0.00 in /  0 mm
18:27 44.9 °F /  7.2 °C 36.8 °F /  2.7 °C 30.15 in /  1020.9 hPa Calm     73 % 0.00 in /  0 mm
18:32 44.9 °F /  7.2 °C 37.1 °F /  2.8 °C 30.15 in /  1020.9 hPa SE 0.9 mph /  1.4 km/h 2.3 mph /  3.7 km/h 74 % 0.00 in /  0 mm
18:37 44.9 °F /  7.2 °C 36.8 °F /  2.7 °C 30.15 in /  1020.9 hPa Calm     73 % 0.00 in /  0 mm
18:42 44.9 °F /  7.2 °C 36.8 °F /  2.7 °C 30.15 in /  1020.9 hPa SE 0.1 mph /  0.2 km/h 1.2 mph /  1.9 km/h 73 % 0.00 in /  0 mm
18:47 44.8 °F /  7.1 °C 37.0 °F /  2.8 °C 30.15 in /  1020.9 hPa SE 0.1 mph /  0.2 km/h 1.2 mph /  1.9 km/h 74 % 0.00 in /  0 mm
18:52 44.8 °F /  7.1 °C 37.0 °F /  2.8 °C 30.15 in /  1020.9 hPa Calm     74 % 0.00 in /  0 mm
18:57 44.8 °F /  7.1 °C 37.0 °F /  2.8 °C 30.15 in /  1020.9 hPa Calm     74 % 0.00 in /  0 mm
19:02 44.7 °F /  7.1 °C 36.9 °F /  2.7 °C 30.15 in /  1020.9 hPa Calm     74 % 0.00 in /  0 mm
19:07 44.7 °F /  7.1 °C 37.3 °F /  2.9 °C 30.15 in /  1020.9 hPa Calm     75 % 0.00 in /  0 mm
19:12 44.7 °F /  7.1 °C 37.3 °F /  2.9 °C 30.14 in /  1020.5 hPa Calm     75 % 0.00 in /  0 mm
19:18 44.7 °F /  7.1 °C 37.3 °F /  2.9 °C 30.14 in /  1020.5 hPa Calm     75 % 0.00 in /  0 mm
19:23 44.7 °F /  7.1 °C 37.3 °F /  2.9 °C 30.14 in /  1020.5 hPa Calm     75 % 0.00 in /  0 mm
19:28 44.7 °F /  7.1 °C 37.3 °F /  2.9 °C 30.14 in /  1020.5 hPa SE 0.2 mph /  0.3 km/h 1.2 mph /  1.9 km/h 75 % 0.00 in /  0 mm
19:33 44.7 °F /  7.1 °C 37.3 °F /  2.9 °C 30.14 in /  1020.5 hPa SE 0.1 mph /  0.2 km/h 3.5 mph /  5.6 km/h 75 % 0.00 in /  0 mm
19:38 44.7 °F /  7.1 °C 37.3 °F /  2.9 °C 30.14 in /  1020.5 hPa Calm     75 % 0.00 in /  0 mm
19:43 44.7 °F /  7.1 °C 37.3 °F /  2.9 °C 30.13 in /  1020.2 hPa Calm     75 % 0.00 in /  0 mm
19:48 44.7 °F /  7.1 °C 37.6 °F /  3.1 °C 30.13 in /  1020.2 hPa Calm     76 % 0.00 in /  0 mm
19:53 44.7 °F /  7.1 °C 37.6 °F /  3.1 °C 30.12 in /  1019.9 hPa Calm     76 % 0.00 in /  0 mm
19:58 44.7 °F /  7.1 °C 37.6 °F /  3.1 °C 30.12 in /  1019.9 hPa SSE 0.1 mph /  0.2 km/h 1.2 mph /  1.9 km/h 76 % 0.00 in /  0 mm
20:03 44.7 °F /  7.1 °C 37.6 °F /  3.1 °C 30.12 in /  1019.9 hPa SE 0.5 mph /  0.8 km/h 3.5 mph /  5.6 km/h 76 % 0.00 in /  0 mm
20:08 44.8 °F /  7.1 °C 37.7 °F /  3.2 °C 30.12 in /  1019.9 hPa SE 0.9 mph /  1.4 km/h 3.0 mph /  4.8 km/h 76 % 0.00 in /  0 mm
20:13 44.9 °F /  7.2 °C 37.8 °F /  3.2 °C 30.11 in /  1019.5 hPa ESE 0.6 mph /  1 km/h 3.5 mph /  5.6 km/h 76 % 0.00 in /  0 mm
20:18 44.9 °F /  7.2 °C 37.8 °F /  3.2 °C 30.11 in /  1019.5 hPa SE 2.7 mph /  4.3 km/h 5.8 mph /  9.3 km/h 76 % 0.00 in /  0 mm
20:21 44.9 °F /  7.2 °C 37.8 °F /  3.2 °C 30.11 in /  1019.5 hPa SE 1.0 mph /  1.6 km/h 6.0 mph /  9.7 km/h 76 % 0.00 in /  0 mm
20:26 45.0 °F /  7.2 °C 38.3 °F /  3.5 °C 30.11 in /  1019.5 hPa SE 2.0 mph /  3.2 km/h 8.0 mph /  12.9 km/h 77 % 0.00 in /  0 mm
20:31 45.1 °F /  7.3 °C 38.3 °F /  3.5 °C 30.10 in /  1019.2 hPa SE 2.9 mph /  4.7 km/h 4.6 mph /  7.4 km/h 77 % 0.00 in /  0 mm
20:36 45.2 °F /  7.3 °C 38.4 °F /  3.6 °C 30.11 in /  1019.5 hPa SE 2.3 mph /  3.7 km/h 5.8 mph /  9.3 km/h 77 % 0.00 in /  0 mm
20:41 45.3 °F /  7.4 °C 38.5 °F /  3.6 °C 30.10 in /  1019.2 hPa SE 1.0 mph /  1.6 km/h 5.0 mph /  8 km/h 77 % 0.00 in /  0 mm
20:46 45.4 °F /  7.4 °C 38.9 °F /  3.8 °C 30.10 in /  1019.2 hPa SE 1.0 mph /  1.6 km/h 6.0 mph /  9.7 km/h 78 % 0.00 in /  0 mm
20:51 45.5 °F /  7.5 °C 38.7 °F /  3.7 °C 30.10 in /  1019.2 hPa SE 2.0 mph /  3.2 km/h 7.0 mph /  11.3 km/h 77 % 0.00 in /  0 mm
20:56 45.6 °F /  7.6 °C 38.8 °F /  3.8 °C 30.10 in /  1019.2 hPa SE 3.0 mph /  4.8 km/h 6.0 mph /  9.7 km/h 77 % 0.00 in /  0 mm
21:01 45.8 °F /  7.7 °C 39.0 °F /  3.9 °C 30.09 in /  1018.8 hPa SE 2.9 mph /  4.7 km/h 6.9 mph /  11.1 km/h 77 % 0.00 in /  0 mm
21:06 45.8 °F /  7.7 °C 39.0 °F /  3.9 °C 30.10 in /  1019.2 hPa SE 2.5 mph /  4 km/h 4.0 mph /  6.4 km/h 77 % 0.00 in /  0 mm
21:11 45.9 °F /  7.7 °C 39.1 °F /  3.9 °C 30.10 in /  1019.2 hPa SE 1.7 mph /  2.7 km/h 10.4 mph /  16.7 km/h 77 % 0.00 in /  0 mm
21:16 46.0 °F /  7.8 °C 39.2 °F /  4 °C 30.09 in /  1018.8 hPa SSE 1.4 mph /  2.3 km/h 3.5 mph /  5.6 km/h 77 % 0.00 in /  0 mm
21:21 46.1 °F /  7.8 °C 39.3 °F /  4.1 °C 30.09 in /  1018.8 hPa SSE 3.0 mph /  4.8 km/h 4.0 mph /  6.4 km/h 77 % 0.00 in /  0 mm
21:26 46.1 °F /  7.8 °C 39.3 °F /  4.1 °C 30.09 in /  1018.8 hPa SE 1.6 mph /  2.6 km/h 4.6 mph /  7.4 km/h 77 % 0.00 in /  0 mm
21:31 46.2 °F /  7.9 °C 39.4 °F /  4.1 °C 30.09 in /  1018.8 hPa SE 1.9 mph /  3.1 km/h 4.0 mph /  6.4 km/h 77 % 0.00 in /  0 mm
21:36 46.3 °F /  7.9 °C 39.5 °F /  4.2 °C 30.09 in /  1018.8 hPa SSE 3.0 mph /  4.8 km/h 4.6 mph /  7.4 km/h 77 % 0.00 in /  0 mm
21:41 46.3 °F /  7.9 °C 39.5 °F /  4.2 °C 30.09 in /  1018.8 hPa SE 3.3 mph /  5.3 km/h 5.8 mph /  9.3 km/h 77 % 0.00 in /  0 mm
21:46 46.4 °F /  8 °C 39.6 °F /  4.2 °C 30.09 in /  1018.8 hPa Calm   1.2 mph /  1.9 km/h 77 % 0.00 in /  0 mm
21:51 46.4 °F /  8 °C 39.6 °F /  4.2 °C 30.09 in /  1018.8 hPa SE 2.8 mph /  4.5 km/h 4.0 mph /  6.4 km/h 77 % 0.00 in /  0 mm
21:56 46.4 °F /  8 °C 39.6 °F /  4.2 °C 30.08 in /  1018.5 hPa Calm     77 % 0.00 in /  0 mm
22:01 46.5 °F /  8.1 °C 39.7 °F /  4.3 °C 30.09 in /  1018.8 hPa SE 0.7 mph /  1.1 km/h 3.5 mph /  5.6 km/h 77 % 0.00 in /  0 mm
22:06 46.5 °F /  8.1 °C 39.7 °F /  4.3 °C 30.09 in /  1018.8 hPa SE 1.4 mph /  2.3 km/h 3.5 mph /  5.6 km/h 77 % 0.00 in /  0 mm
22:11 46.5 °F /  8.1 °C 39.7 °F /  4.3 °C 30.08 in /  1018.5 hPa SE 0.3 mph /  0.5 km/h 2.3 mph /  3.7 km/h 77 % 0.00 in /  0 mm
22:16 46.5 °F /  8.1 °C 39.7 °F /  4.3 °C 30.08 in /  1018.5 hPa SE 0.1 mph /  0.2 km/h 1.2 mph /  1.9 km/h 77 % 0.00 in /  0 mm
22:21 46.5 °F /  8.1 °C 39.7 °F /  4.3 °C 30.08 in /  1018.5 hPa Calm   2.3 mph /  3.7 km/h 77 % 0.00 in /  0 mm
22:22 46.5 °F /  8.1 °C 39.7 °F /  4.3 °C 30.08 in /  1018.5 hPa Calm   2.3 mph /  3.7 km/h 77 % 0.00 in /  0 mm
22:23 46.5 °F /  8.1 °C 39.7 °F /  4.3 °C 30.08 in /  1018.5 hPa SE 0.4 mph /  0.6 km/h 3.5 mph /  5.6 km/h 77 % 0.00 in /  0 mm
22:28 46.5 °F /  8.1 °C 39.7 °F /  4.3 °C 30.08 in /  1018.5 hPa SE 0.2 mph /  0.3 km/h 1.0 mph /  1.6 km/h 77 % 0.00 in /  0 mm
22:33 46.5 °F /  8.1 °C 39.7 °F /  4.3 °C 30.08 in /  1018.5 hPa SE 1.3 mph /  2.1 km/h 3.5 mph /  5.6 km/h 77 % 0.00 in /  0 mm
22:38 46.6 °F /  8.1 °C 39.8 °F /  4.3 °C 30.07 in /  1018.2 hPa SE 2.4 mph /  3.9 km/h 4.0 mph /  6.4 km/h 77 % 0.00 in /  0 mm
22:43 46.5 °F /  8.1 °C 39.7 °F /  4.3 °C 30.07 in /  1018.2 hPa SE 0.7 mph /  1.1 km/h 3.5 mph /  5.6 km/h 77 % 0.00 in /  0 mm
22:48 46.6 °F /  8.1 °C 39.8 °F /  4.3 °C 30.07 in /  1018.2 hPa Calm   1.2 mph /  1.9 km/h 77 % 0.00 in /  0 mm
22:54 46.6 °F /  8.1 °C 39.8 °F /  4.3 °C 30.07 in /  1018.2 hPa SE 0.9 mph /  1.4 km/h 2.3 mph /  3.7 km/h 77 % 0.00 in /  0 mm
22:59 46.6 °F /  8.1 °C 39.8 °F /  4.3 °C 30.07 in /  1018.2 hPa SE 1.4 mph /  2.3 km/h 3.5 mph /  5.6 km/h 77 % 0.00 in /  0 mm
23:04 46.6 °F /  8.1 °C 39.8 °F /  4.3 °C 30.07 in /  1018.2 hPa SE 1.6 mph /  2.6 km/h 3.5 mph /  5.6 km/h 77 % 0.00 in /  0 mm
23:09 46.5 °F /  8.1 °C 39.7 °F /  4.3 °C 30.06 in /  1017.8 hPa SE 0.6 mph /  1 km/h 4.6 mph /  7.4 km/h 77 % 0.00 in /  0 mm
23:14 46.5 °F /  8.1 °C 39.7 °F /  4.3 °C 30.06 in /  1017.8 hPa SE 1.9 mph /  3.1 km/h 3.5 mph /  5.6 km/h 77 % 0.00 in /  0 mm
23:19 46.5 °F /  8.1 °C 39.7 °F /  4.3 °C 30.06 in /  1017.8 hPa SE 1.2 mph /  1.9 km/h 3.5 mph /  5.6 km/h 77 % 0.00 in /  0 mm
23:24 46.5 °F /  8.1 °C 39.7 °F /  4.3 °C 30.06 in /  1017.8 hPa SE 0.2 mph /  0.3 km/h 1.2 mph /  1.9 km/h 77 % 0.00 in /  0 mm
23:29 46.5 °F /  8.1 °C 39.7 °F /  4.3 °C 30.06 in /  1017.8 hPa SE 1.4 mph /  2.3 km/h 3.5 mph /  5.6 km/h 77 % 0.00 in /  0 mm
23:34 46.5 °F /  8.1 °C 39.7 °F /  4.3 °C 30.06 in /  1017.8 hPa SE 1.1 mph /  1.8 km/h 3.5 mph /  5.6 km/h 77 % 0.00 in /  0 mm
23:39 46.5 °F /  8.1 °C 39.7 °F /  4.3 °C 30.06 in /  1017.8 hPa SE 2.2 mph /  3.5 km/h 5.8 mph /  9.3 km/h 77 % 0.00 in /  0 mm
23:44 46.5 °F /  8.1 °C 39.7 °F /  4.3 °C 30.06 in /  1017.8 hPa SSE 0.1 mph /  0.2 km/h 3.5 mph /  5.6 km/h 77 % 0.00 in /  0 mm
23:49 46.5 °F /  8.1 °C 39.7 °F /  4.3 °C 30.05 in /  1017.5 hPa SE 1.0 mph /  1.6 km/h 3.0 mph /  4.8 km/h 77 % 0.00 in /  0 mm
23:54 46.5 °F /  8.1 °C 39.7 °F /  4.3 °C 30.05 in /  1017.5 hPa SE 0.4 mph /  0.6 km/h 2.3 mph /  3.7 km/h 77 % 0.00 in /  0 mm
23:59 46.5 °F /  8.1 °C 39.7 °F /  4.3 °C 30.05 in /  1017.5 hPa SE 0.8 mph /  1.3 km/h 2.3 mph /  3.7 km/h 77 % 0.00 in /  0 mm
Crab Meadow Weather
Compliments of Weather Underground - 3 mb

Script developed by  Jim McMurry - jmcmurry@mwt.net Adapted for the template by  Wim van der Kuil - Leuven-Template.eu

Weather Terms: Advisory - An advisory is issued when a hazardous weather or hydrologic event is occurring, imminent or likely. Advisories are for less serious conditions than warnings, that cause significant inconvenience and if caution is not exercised, could lead to situations that may threaten life or property.